createdAt,value
2022-08-11T00:00:11.055Z,23.64
2022-08-11T00:01:11.082Z,23.59
2022-08-11T00:02:15.037Z,23.45
2022-08-11T00:03:11.072Z,23.54
2022-08-11T00:04:11.010Z,23.49
2022-08-11T00:05:11.000Z,23.42
2022-08-11T00:06:10.991Z,23.44
2022-08-11T00:07:11.005Z,23.41
2022-08-11T00:08:10.967Z,23.36
2022-08-11T00:09:10.952Z,23.33
2022-08-11T00:10:10.943Z,23.39
2022-08-11T00:11:10.933Z,23.37
2022-08-11T00:12:10.946Z,23.33
2022-08-11T00:13:10.913Z,23.33
2022-08-11T00:14:11.901Z,23.26
2022-08-11T00:15:10.894Z,23.25
2022-08-11T00:16:10.879Z,23.34
2022-08-11T00:17:11.031Z,23.39
2022-08-11T00:18:10.862Z,23.28
2022-08-11T00:19:10.845Z,23.22
2022-08-11T00:20:11.560Z,23.21
2022-08-11T00:21:10.831Z,23.22
2022-08-11T00:22:10.816Z,23.23
2022-08-11T00:23:10.845Z,23.13
2022-08-11T00:24:10.797Z,23.18
2022-08-11T00:25:10.789Z,23.08
2022-08-11T00:26:10.776Z,23.14
2022-08-11T00:27:10.819Z,23.13
2022-08-11T00:28:10.751Z,23.06
2022-08-11T00:29:10.738Z,23.08
2022-08-11T00:30:10.735Z,23.08
2022-08-11T00:31:10.720Z,23.06
2022-08-11T00:32:10.741Z,22.96
2022-08-11T00:33:10.701Z,22.93
2022-08-11T00:34:10.690Z,22.88
2022-08-11T00:35:55.833Z,22.96
2022-08-11T00:36:11.665Z,22.91
2022-08-11T00:37:10.706Z,22.88
2022-08-11T00:38:10.648Z,22.91
2022-08-11T00:39:10.690Z,22.83
2022-08-11T00:40:10.631Z,22.81
2022-08-11T00:41:10.613Z,22.88
2022-08-11T00:42:10.617Z,22.83
2022-08-11T00:43:10.853Z,22.86
2022-08-11T00:44:11.606Z,22.81
2022-08-11T00:45:10.571Z,22.71
2022-08-11T00:46:10.560Z,22.68
2022-08-11T00:47:10.577Z,22.73
2022-08-11T00:48:10.554Z,22.73
2022-08-11T00:49:11.976Z,22.67
2022-08-11T00:50:10.516Z,22.67
2022-08-11T00:51:10.511Z,22.70
2022-08-11T00:52:10.491Z,22.61
2022-08-11T00:53:10.517Z,22.58
2022-08-11T00:54:10.625Z,22.56
2022-08-11T00:55:10.466Z,22.58
2022-08-11T00:56:10.453Z,22.59
2022-08-11T00:57:36.205Z,22.51
2022-08-11T00:58:11.433Z,22.56
2022-08-11T00:59:34.050Z,22.48
2022-08-11T01:00:11.436Z,22.52
2022-08-11T01:01:10.550Z,22.52
2022-08-11T01:02:10.389Z,22.38
2022-08-11T01:03:10.374Z,22.44
2022-08-11T01:04:10.366Z,22.44
2022-08-11T01:05:10.392Z,22.38
2022-08-11T01:06:10.347Z,22.38
2022-08-11T01:07:10.331Z,22.27
2022-08-11T01:08:10.323Z,22.36
2022-08-11T01:09:10.314Z,22.28
2022-08-11T01:10:11.377Z,22.25
2022-08-11T01:11:10.307Z,22.33
2022-08-11T01:12:10.276Z,22.28
2022-08-11T01:13:10.263Z,22.30
2022-08-11T01:14:10.253Z,22.25
2022-08-11T01:15:10.268Z,22.18
2022-08-11T01:16:10.238Z,22.13
2022-08-11T01:17:10.226Z,22.21
2022-08-11T01:18:10.217Z,22.18
2022-08-11T01:19:10.197Z,22.13
2022-08-11T01:20:47.481Z,22.11
2022-08-11T01:21:11.201Z,22.11
2022-08-11T01:22:10.169Z,21.98
2022-08-11T01:23:12.565Z,22.09
2022-08-11T01:24:11.147Z,22.12
2022-08-11T01:25:10.165Z,22.07
2022-08-11T01:26:10.127Z,22.03
2022-08-11T01:27:19.210Z,22.07
2022-08-11T01:28:11.100Z,22.01
2022-08-11T01:29:10.092Z,22.00
2022-08-11T01:30:10.330Z,22.06
2022-08-11T01:31:10.077Z,22.01
2022-08-11T01:32:10.057Z,21.98
2022-08-11T01:33:10.047Z,21.98
2022-08-11T01:34:10.035Z,21.93
2022-08-11T01:35:10.033Z,21.93
2022-08-11T01:36:10.079Z,21.84
2022-08-11T01:37:10.015Z,21.90
2022-08-11T01:38:09.990Z,21.85
2022-08-11T01:39:10.007Z,21.84
2022-08-11T01:40:09.974Z,21.81
2022-08-11T01:41:10.179Z,21.81
2022-08-11T01:42:09.951Z,21.80
2022-08-11T01:43:09.935Z,21.81
2022-08-11T01:44:13.126Z,21.80
2022-08-11T01:45:09.918Z,21.71
2022-08-11T01:46:09.931Z,21.71
2022-08-11T01:47:09.893Z,21.78
2022-08-11T01:48:09.879Z,21.69
2022-08-11T01:50:07.248Z,21.66
2022-08-11T01:50:10.968Z,21.71
2022-08-11T01:51:09.873Z,21.59
2022-08-11T01:52:10.838Z,21.65
2022-08-11T01:53:09.824Z,21.58
2022-08-11T01:54:09.816Z,21.58
2022-08-11T01:55:09.851Z,21.53
2022-08-11T01:56:09.797Z,21.58
2022-08-11T01:57:09.797Z,21.60
2022-08-11T01:58:09.781Z,21.53
2022-08-11T01:59:09.756Z,21.56
2022-08-11T02:00:09.752Z,21.44
2022-08-11T02:01:09.880Z,21.48
2022-08-11T02:02:09.724Z,21.50
2022-08-11T02:03:10.715Z,21.44
2022-08-11T02:04:09.712Z,21.43
2022-08-11T02:05:09.697Z,21.43
2022-08-11T02:06:09.713Z,21.47
2022-08-11T02:07:09.673Z,21.43
2022-08-11T02:08:09.828Z,21.41
2022-08-11T02:09:09.673Z,21.45
2022-08-11T02:10:09.644Z,21.37
2022-08-11T02:11:12.700Z,21.37
2022-08-11T02:12:09.620Z,21.35
2022-08-11T02:13:09.623Z,21.32
2022-08-11T02:14:09.599Z,21.37
2022-08-11T02:15:09.618Z,21.26
2022-08-11T02:16:09.575Z,21.30
2022-08-11T02:17:09.601Z,21.29
2022-08-11T02:18:09.554Z,21.29
2022-08-11T02:19:09.537Z,21.29
2022-08-11T02:20:09.529Z,21.28
2022-08-11T02:21:09.514Z,21.28
2022-08-11T02:22:09.506Z,21.20
2022-08-11T02:23:09.529Z,21.19
2022-08-11T02:24:09.482Z,21.14
2022-08-11T02:25:09.480Z,21.22
2022-08-11T02:26:09.464Z,21.14
2022-08-11T02:27:09.453Z,21.07
2022-08-11T02:28:09.484Z,21.05
2022-08-11T02:29:09.432Z,21.08
2022-08-11T02:30:09.422Z,21.07
2022-08-11T02:31:09.428Z,21.10
2022-08-11T02:32:24.779Z,21.11
2022-08-11T02:33:10.383Z,21.07
2022-08-11T02:34:09.377Z,21.11
2022-08-11T02:35:09.368Z,21.03
2022-08-11T02:36:09.358Z,20.93
2022-08-11T02:37:09.383Z,20.97
2022-08-11T02:38:09.332Z,20.97
2022-08-11T02:39:09.414Z,20.93
2022-08-11T02:40:09.312Z,20.88
2022-08-11T02:41:09.299Z,20.90
2022-08-11T02:42:33.409Z,20.97
2022-08-11T02:43:10.353Z,20.88
2022-08-11T02:44:09.264Z,20.88
2022-08-11T02:45:09.268Z,20.92
2022-08-11T02:46:09.270Z,20.85
2022-08-11T02:47:10.232Z,20.83
2022-08-11T02:48:09.225Z,20.85
2022-08-11T02:49:09.212Z,20.79
2022-08-11T02:50:09.207Z,20.73
2022-08-11T02:51:09.220Z,20.73
2022-08-11T02:52:09.182Z,20.77
2022-08-11T02:53:09.166Z,20.70
2022-08-11T02:54:09.159Z,20.74
2022-08-11T02:55:12.390Z,20.70
2022-08-11T02:56:10.136Z,20.64
2022-08-11T02:57:11.309Z,20.63
2022-08-11T02:58:09.112Z,20.64
2022-08-11T02:59:09.098Z,20.64
2022-08-11T03:00:09.102Z,20.68
2022-08-11T03:01:09.118Z,20.61
2022-08-11T03:02:09.138Z,20.67
2022-08-11T03:03:09.055Z,20.56
2022-08-11T03:04:09.054Z,20.55
2022-08-11T03:05:09.043Z,20.56
2022-08-11T03:06:09.061Z,20.55
2022-08-11T03:07:28.903Z,20.55
2022-08-11T03:08:10.006Z,20.42
2022-08-11T03:09:08.996Z,20.42
2022-08-11T03:10:08.985Z,20.46
2022-08-11T03:11:08.976Z,20.52
2022-08-11T03:12:08.997Z,20.41
2022-08-11T03:13:08.949Z,20.41
2022-08-11T03:14:08.939Z,20.44
2022-08-11T03:15:08.928Z,20.37
2022-08-11T03:16:08.922Z,20.42
2022-08-11T03:17:08.942Z,20.36
2022-08-11T03:18:08.897Z,20.33
2022-08-11T03:19:08.888Z,20.36
2022-08-11T03:20:08.877Z,20.29
2022-08-11T03:21:08.869Z,20.37
2022-08-11T03:22:08.883Z,20.26
2022-08-11T03:23:19.635Z,20.37
2022-08-11T03:24:09.829Z,20.36
2022-08-11T03:25:12.893Z,20.36
2022-08-11T03:26:10.419Z,20.25
2022-08-11T03:27:08.804Z,20.19
2022-08-11T03:28:08.785Z,20.30
2022-08-11T03:29:08.781Z,20.25
2022-08-11T03:30:08.768Z,20.33
2022-08-11T03:31:08.817Z,20.25
2022-08-11T03:32:08.742Z,20.26
2022-08-11T03:33:08.739Z,20.26
2022-08-11T03:34:08.726Z,20.19
2022-08-11T03:35:08.710Z,20.18
2022-08-11T03:36:08.705Z,20.25
2022-08-11T03:37:16.005Z,20.17
2022-08-11T03:38:09.678Z,20.19
2022-08-11T03:39:08.722Z,20.15
2022-08-11T03:40:08.666Z,20.14
2022-08-11T03:41:50.394Z,20.09
2022-08-11T03:42:10.401Z,20.09
2022-08-11T03:43:08.621Z,20.07
2022-08-11T03:44:08.632Z,20.05
2022-08-11T03:45:08.599Z,19.99
2022-08-11T03:46:08.590Z,20.00
2022-08-11T03:47:08.607Z,20.00
2022-08-11T03:48:08.565Z,20.02
2022-08-11T03:49:08.560Z,20.04
2022-08-11T03:50:08.552Z,19.96
2022-08-11T03:51:08.565Z,20.04
2022-08-11T03:52:08.531Z,20.02
2022-08-11T03:53:08.514Z,19.90
2022-08-11T03:54:08.501Z,19.90
2022-08-11T03:55:08.485Z,19.89
2022-08-11T03:56:08.507Z,19.86
2022-08-11T03:57:08.472Z,19.90
2022-08-11T03:58:08.455Z,19.90
2022-08-11T03:59:08.449Z,19.84
2022-08-11T04:00:08.436Z,19.87
2022-08-11T04:01:08.472Z,19.84
2022-08-11T04:02:08.415Z,19.77
2022-08-11T04:03:08.406Z,19.89
2022-08-11T04:04:08.393Z,19.75
2022-08-11T04:05:08.378Z,19.77
2022-08-11T04:06:08.419Z,19.77
2022-08-11T04:07:08.364Z,19.74
2022-08-11T04:08:08.350Z,19.77
2022-08-11T04:09:08.343Z,19.72
2022-08-11T04:10:08.327Z,19.77
2022-08-11T04:11:08.345Z,19.70
2022-08-11T04:12:08.301Z,19.64
2022-08-11T04:13:09.288Z,19.62
2022-08-11T04:14:08.275Z,19.71
2022-08-11T04:15:08.269Z,19.67
2022-08-11T04:16:12.417Z,19.67
2022-08-11T04:17:08.252Z,19.68
2022-08-11T04:18:08.237Z,19.63
2022-08-11T04:19:08.247Z,19.62
2022-08-11T04:20:08.211Z,19.63
2022-08-11T04:21:08.228Z,19.67
2022-08-11T04:22:08.194Z,19.71
2022-08-11T04:23:08.177Z,19.54
2022-08-11T04:24:37.236Z,19.62
2022-08-11T04:25:09.158Z,19.63
2022-08-11T04:26:15.919Z,19.59
2022-08-11T04:27:13.279Z,19.62
2022-08-11T04:28:09.123Z,19.59
2022-08-11T04:29:09.431Z,19.52
2022-08-11T04:30:09.215Z,19.60
2022-08-11T04:31:08.114Z,19.56
2022-08-11T04:32:08.079Z,19.56
2022-08-11T04:33:08.080Z,19.52
2022-08-11T04:34:08.060Z,19.56
2022-08-11T04:35:08.083Z,19.56
2022-08-11T04:36:08.042Z,19.52
2022-08-11T04:37:08.025Z,19.54
2022-08-11T04:38:08.024Z,19.45
2022-08-11T04:39:08.102Z,19.42
2022-08-11T04:40:08.021Z,19.50
2022-08-11T04:41:07.985Z,19.44
2022-08-11T04:42:07.971Z,19.44
2022-08-11T04:43:07.956Z,19.37
2022-08-11T04:44:07.954Z,19.37
2022-08-11T04:45:07.977Z,19.38
2022-08-11T04:46:07.925Z,19.42
2022-08-11T04:47:07.917Z,19.38
2022-08-11T04:48:07.898Z,19.42
2022-08-11T04:49:07.894Z,19.39
2022-08-11T04:50:07.882Z,19.47
2022-08-11T04:51:16.573Z,19.49
2022-08-11T04:52:08.861Z,19.42
2022-08-11T04:53:07.846Z,19.47
2022-08-11T04:54:07.834Z,19.41
2022-08-11T04:55:07.830Z,19.42
2022-08-11T04:56:07.876Z,19.44
2022-08-11T04:57:07.803Z,19.45
2022-08-11T04:58:07.797Z,19.38
2022-08-11T04:59:07.785Z,19.39
2022-08-11T05:00:07.765Z,19.37
2022-08-11T05:01:07.786Z,19.41
2022-08-11T05:02:16.922Z,19.32
2022-08-11T05:03:08.735Z,19.44
2022-08-11T05:04:07.719Z,19.44
2022-08-11T05:05:07.717Z,19.44
2022-08-11T05:06:07.699Z,19.39
2022-08-11T05:07:07.691Z,19.39
2022-08-11T05:08:07.733Z,19.42
2022-08-11T05:09:07.664Z,19.34
2022-08-11T05:10:07.686Z,19.44
2022-08-11T05:11:07.674Z,19.39
2022-08-11T05:12:07.632Z,19.41
2022-08-11T05:13:07.648Z,19.39
2022-08-11T05:14:07.611Z,19.42
2022-08-11T05:15:07.636Z,19.32
2022-08-11T05:16:07.593Z,19.42
2022-08-11T05:17:07.583Z,19.52
2022-08-11T05:18:07.562Z,19.52
2022-08-11T05:19:07.561Z,19.34
2022-08-11T05:20:07.590Z,19.39
2022-08-11T05:21:07.549Z,19.44
2022-08-11T05:22:07.523Z,19.44
2022-08-11T05:23:07.513Z,19.39
2022-08-11T05:24:07.660Z,19.50
2022-08-11T05:25:07.492Z,19.45
2022-08-11T05:26:25.523Z,19.42
2022-08-11T05:27:13.331Z,19.42
2022-08-11T05:28:08.796Z,19.54
2022-08-11T05:29:08.301Z,19.56
2022-08-11T05:30:08.436Z,19.56
2022-08-11T05:31:07.606Z,19.53
2022-08-11T05:32:07.412Z,19.50
2022-08-11T05:33:07.402Z,19.60
2022-08-11T05:34:07.389Z,19.53
2022-08-11T05:35:07.376Z,19.53
2022-08-11T05:36:07.374Z,19.52
2022-08-11T05:37:26.249Z,19.57
2022-08-11T05:38:08.346Z,19.68
2022-08-11T05:39:07.388Z,19.67
2022-08-11T05:40:07.383Z,19.63
2022-08-11T05:41:07.312Z,19.63
2022-08-11T05:42:07.337Z,19.68
2022-08-11T05:43:07.299Z,19.68
2022-08-11T05:44:20.653Z,19.64
2022-08-11T05:45:15.326Z,19.70
2022-08-11T05:46:13.121Z,19.72
2022-08-11T05:47:08.253Z,19.74
2022-08-11T05:48:07.235Z,19.71
2022-08-11T05:49:07.220Z,19.72
2022-08-11T05:50:07.264Z,19.74
2022-08-11T05:51:10.540Z,19.74
2022-08-11T05:52:16.296Z,19.74
2022-08-11T05:53:09.256Z,19.77
2022-08-11T05:54:07.183Z,19.87
2022-08-11T05:55:08.335Z,19.87
2022-08-11T05:56:07.145Z,19.86
2022-08-11T05:57:07.134Z,19.94
2022-08-11T05:58:07.127Z,19.94
2022-08-11T05:59:07.113Z,19.96
2022-08-11T06:00:07.129Z,20.00
2022-08-11T06:01:07.141Z,20.00
2022-08-11T06:02:07.085Z,20.07
2022-08-11T06:03:07.067Z,20.05
2022-08-11T06:04:07.062Z,20.11
2022-08-11T06:05:07.103Z,20.08
2022-08-11T06:06:07.037Z,20.12
2022-08-11T06:07:07.027Z,20.15
2022-08-11T06:08:07.041Z,20.22
2022-08-11T06:09:07.015Z,20.15
2022-08-11T06:10:07.006Z,20.26
2022-08-11T06:11:06.985Z,20.19
2022-08-11T06:12:06.965Z,20.22
2022-08-11T06:13:06.995Z,20.27
2022-08-11T06:14:06.952Z,20.30
2022-08-11T06:15:06.947Z,20.34
2022-08-11T06:16:07.321Z,20.36
2022-08-11T06:17:06.914Z,20.42
2022-08-11T06:18:06.953Z,20.32
2022-08-11T06:19:06.893Z,20.32
2022-08-11T06:20:07.667Z,20.44
2022-08-11T06:21:06.879Z,20.39
2022-08-11T06:22:06.875Z,20.34
2022-08-11T06:23:06.898Z,20.42
2022-08-11T06:24:06.841Z,20.50
2022-08-11T06:25:06.826Z,20.50
2022-08-11T06:26:06.818Z,20.50
2022-08-11T06:27:12.837Z,20.53
2022-08-11T06:28:07.832Z,20.58
2022-08-11T06:29:06.787Z,20.65
2022-08-11T06:30:06.773Z,20.58
2022-08-11T06:31:06.764Z,20.65
2022-08-11T06:32:06.749Z,20.71
2022-08-11T06:33:06.748Z,20.73
2022-08-11T06:34:06.926Z,20.74
2022-08-11T06:35:06.720Z,20.80
2022-08-11T06:36:06.750Z,20.83
2022-08-11T06:37:06.699Z,20.82
2022-08-11T06:38:06.690Z,20.83
2022-08-11T06:39:06.681Z,20.88
2022-08-11T06:40:06.668Z,20.88
2022-08-11T06:41:06.685Z,20.98
2022-08-11T06:42:06.641Z,20.97
2022-08-11T06:43:06.659Z,20.98
2022-08-11T06:44:06.627Z,20.97
2022-08-11T06:45:06.610Z,21.11
2022-08-11T06:46:06.603Z,21.07
2022-08-11T06:47:06.587Z,21.18
2022-08-11T06:48:06.625Z,21.22
2022-08-11T06:49:06.566Z,21.19
2022-08-11T06:50:06.551Z,21.28
2022-08-11T06:51:06.547Z,21.25
2022-08-11T06:52:06.534Z,21.30
2022-08-11T06:53:06.527Z,21.38
2022-08-11T06:54:06.806Z,21.32
2022-08-11T06:55:06.544Z,21.40
2022-08-11T06:56:06.488Z,21.43
2022-08-11T06:57:28.911Z,21.41
2022-08-11T06:58:07.466Z,21.45
2022-08-11T06:59:08.659Z,21.51
2022-08-11T07:00:06.443Z,21.56
2022-08-11T07:01:06.483Z,21.59
2022-08-11T07:02:06.424Z,21.56
2022-08-11T07:03:06.417Z,21.59
2022-08-11T07:04:06.406Z,21.67
2022-08-11T07:05:06.555Z,21.74
2022-08-11T07:06:06.384Z,21.71
2022-08-11T07:07:06.365Z,21.78
2022-08-11T07:08:33.900Z,21.82
2022-08-11T07:09:07.350Z,21.91
2022-08-11T07:10:06.340Z,21.82
2022-08-11T07:11:09.480Z,21.91
2022-08-11T07:12:06.316Z,21.93
2022-08-11T07:13:06.307Z,21.94
2022-08-11T07:14:06.292Z,22.11
2022-08-11T07:15:06.285Z,22.04
2022-08-11T07:16:11.576Z,22.09
2022-08-11T07:17:07.330Z,22.07
2022-08-11T07:18:06.252Z,22.11
2022-08-11T07:19:06.244Z,22.27
2022-08-11T07:20:06.226Z,22.25
2022-08-11T07:21:06.219Z,22.23
2022-08-11T07:22:07.206Z,22.31
2022-08-11T07:23:06.242Z,22.33
2022-08-11T07:24:06.179Z,22.38
2022-08-11T07:25:06.174Z,22.48
2022-08-11T07:26:06.164Z,22.56
2022-08-11T07:27:06.150Z,22.52
2022-08-11T07:28:06.187Z,22.56
2022-08-11T07:29:06.128Z,22.53
2022-08-11T07:30:06.115Z,22.70
2022-08-11T07:31:06.106Z,22.74
2022-08-11T07:32:06.095Z,22.77
2022-08-11T07:33:06.405Z,22.78
2022-08-11T07:34:11.190Z,22.81
2022-08-11T07:35:07.068Z,22.96
2022-08-11T07:36:06.205Z,23.03
2022-08-11T07:37:06.046Z,23.03
2022-08-11T07:38:07.272Z,23.10
2022-08-11T07:39:06.023Z,23.10
2022-08-11T07:40:06.010Z,23.15
2022-08-11T07:41:06.001Z,23.22
2022-08-11T07:42:06.025Z,23.25
2022-08-11T07:43:05.983Z,23.34
2022-08-11T07:44:05.963Z,23.33
2022-08-11T07:45:05.956Z,23.29
2022-08-11T07:46:05.944Z,23.34
2022-08-11T07:47:06.106Z,23.39
2022-08-11T07:48:05.930Z,23.42
2022-08-11T07:49:05.912Z,23.55
2022-08-11T07:50:05.908Z,23.56
2022-08-11T07:51:05.898Z,23.66
2022-08-11T07:52:05.883Z,23.74
2022-08-11T07:53:05.912Z,23.70
2022-08-11T07:54:16.511Z,23.73
2022-08-11T07:55:08.532Z,23.82
2022-08-11T07:56:05.833Z,23.98
2022-08-11T07:57:09.120Z,23.97
2022-08-11T07:58:16.678Z,24.01
2022-08-11T07:59:08.377Z,24.04
2022-08-11T08:00:05.812Z,24.11
2022-08-11T08:01:10.293Z,24.15
2022-08-11T08:02:06.862Z,24.26
2022-08-11T08:03:05.757Z,24.31
2022-08-11T08:04:05.745Z,24.33
2022-08-11T08:05:05.733Z,24.41
2022-08-11T08:06:05.722Z,24.38
2022-08-11T08:07:06.711Z,24.52
2022-08-11T08:08:05.732Z,24.59
2022-08-11T08:09:05.690Z,24.60
2022-08-11T08:10:05.678Z,24.65
2022-08-11T08:11:05.669Z,24.68
2022-08-11T08:12:05.718Z,24.79
2022-08-11T08:13:05.647Z,24.78
2022-08-11T08:14:05.631Z,24.79
2022-08-11T08:15:05.624Z,24.89
2022-08-11T08:16:05.616Z,25.00
2022-08-11T08:17:05.606Z,25.01
2022-08-11T08:18:20.512Z,25.06
2022-08-11T08:19:06.580Z,25.12
2022-08-11T08:20:05.571Z,25.19
2022-08-11T08:21:05.557Z,25.23
2022-08-11T08:22:37.386Z,25.30
2022-08-11T08:23:06.570Z,25.36
2022-08-11T08:24:05.527Z,25.38
2022-08-11T08:25:05.518Z,25.49
2022-08-11T08:26:05.514Z,25.52
2022-08-11T08:27:05.494Z,25.51
2022-08-11T08:28:05.514Z,25.59
2022-08-11T08:29:05.481Z,25.61
2022-08-11T08:30:05.462Z,25.66
2022-08-11T08:31:05.453Z,25.74
2022-08-11T08:32:05.446Z,25.77
2022-08-11T08:33:05.462Z,25.78
2022-08-11T08:34:05.420Z,25.89
2022-08-11T08:35:05.414Z,25.92
2022-08-11T08:36:05.400Z,26.03
2022-08-11T08:37:15.819Z,26.08
2022-08-11T08:38:06.378Z,26.15
2022-08-11T08:39:05.365Z,26.19
2022-08-11T08:40:05.360Z,26.16
2022-08-11T08:41:05.344Z,26.24
2022-08-11T08:42:05.331Z,26.36
2022-08-11T08:43:05.364Z,26.31
2022-08-11T08:45:06.302Z,26.42
2022-08-11T08:46:05.292Z,26.57
2022-08-11T08:47:05.285Z,26.49
2022-08-11T08:48:05.451Z,26.65
2022-08-11T08:49:05.263Z,26.67
2022-08-11T08:50:05.249Z,26.75
2022-08-11T08:51:05.240Z,26.80
2022-08-11T08:52:42.682Z,26.75
2022-08-11T08:53:09.431Z,26.78
2022-08-11T08:54:05.207Z,26.89
2022-08-11T08:55:05.195Z,26.90
2022-08-11T08:56:05.181Z,26.97
2022-08-11T08:57:05.251Z,27.10
2022-08-11T08:58:05.189Z,27.12
2022-08-11T08:59:05.151Z,27.19
2022-08-11T09:00:05.156Z,27.19
2022-08-11T09:01:05.162Z,27.32
2022-08-11T09:02:05.118Z,27.38
2022-08-11T09:03:22.805Z,27.44
2022-08-11T09:04:11.449Z,27.52
2022-08-11T09:05:06.084Z,27.52
2022-08-11T09:06:05.076Z,27.63
2022-08-11T09:07:05.068Z,27.75
2022-08-11T09:08:05.053Z,27.80
2022-08-11T09:09:05.073Z,27.78
2022-08-11T09:10:05.038Z,27.91
2022-08-11T09:11:05.030Z,27.94
2022-08-11T09:12:05.017Z,28.06
2022-08-11T09:13:05.005Z,28.13
2022-08-11T09:14:07.549Z,28.16
2022-08-11T09:15:05.982Z,28.31
2022-08-11T09:16:04.970Z,28.50
2022-08-11T09:17:04.961Z,28.57
2022-08-11T09:18:04.950Z,28.65
2022-08-11T09:19:04.979Z,28.77
2022-08-11T09:20:04.933Z,28.87
2022-08-11T09:21:04.917Z,29.06
2022-08-11T09:22:04.908Z,29.19
2022-08-11T09:24:16.909Z,29.43
2022-08-11T09:25:05.896Z,29.56
2022-08-11T09:26:04.870Z,29.61
2022-08-11T09:27:04.858Z,29.70
2022-08-11T09:28:04.854Z,29.76
2022-08-11T09:29:04.866Z,29.83
2022-08-11T09:30:04.868Z,29.89
2022-08-11T09:31:04.809Z,29.87
2022-08-11T09:32:04.797Z,29.93
2022-08-11T09:33:04.799Z,29.98
2022-08-11T09:34:04.777Z,30.02
2022-08-11T09:35:04.820Z,30.03
2022-08-11T09:36:04.758Z,30.07
2022-08-11T09:37:04.747Z,30.11
2022-08-11T09:38:04.736Z,30.11
2022-08-11T09:39:04.721Z,30.11
2022-08-11T09:40:04.717Z,30.07
2022-08-11T09:41:04.736Z,30.05
2022-08-11T09:42:04.695Z,30.03
2022-08-11T09:43:04.683Z,30.03
2022-08-11T09:44:04.728Z,30.17
2022-08-11T09:45:04.700Z,30.20
2022-08-11T09:46:04.649Z,30.18
2022-08-11T09:47:04.642Z,30.26
2022-08-11T09:48:04.629Z,30.26
2022-08-11T09:49:04.624Z,30.22
2022-08-11T09:50:04.642Z,30.17
2022-08-11T09:51:04.603Z,30.28
2022-08-11T09:52:05.398Z,30.24
2022-08-11T09:53:36.456Z,30.30
2022-08-11T09:54:05.566Z,30.39
2022-08-11T09:55:04.601Z,30.48
2022-08-11T09:56:04.588Z,30.36
2022-08-11T09:57:05.491Z,30.37
2022-08-11T09:58:04.526Z,30.52
2022-08-11T09:59:04.521Z,30.55
2022-08-11T10:00:12.578Z,30.62
2022-08-11T10:01:05.620Z,30.58
2022-08-11T10:02:04.485Z,30.62
2022-08-11T10:03:04.469Z,30.70
2022-08-11T10:04:04.463Z,30.62
2022-08-11T10:05:04.447Z,30.74
2022-08-11T10:06:07.919Z,30.80
2022-08-11T10:07:05.132Z,30.85
2022-08-11T10:08:04.418Z,30.99
2022-08-11T10:09:04.412Z,30.95
2022-08-11T10:10:04.399Z,31.01
2022-08-11T10:11:04.408Z,31.10
2022-08-11T10:12:04.373Z,31.19
2022-08-11T10:13:04.375Z,31.39
2022-08-11T10:14:32.565Z,31.63
2022-08-11T10:15:05.340Z,31.63
2022-08-11T10:16:15.426Z,31.99
2022-08-11T10:17:05.319Z,32.21
2022-08-11T10:18:04.317Z,32.43
2022-08-11T10:19:04.297Z,32.65
2022-08-11T10:20:05.921Z,32.88
2022-08-11T10:21:04.315Z,33.04
2022-08-11T10:22:04.272Z,33.33
2022-08-11T10:23:04.255Z,33.58
2022-08-11T10:24:05.924Z,33.63
2022-08-11T10:26:14.131Z,34.04
2022-08-11T10:27:14.122Z,34.37
2022-08-11T10:28:33.717Z,34.57
2022-08-11T10:29:15.384Z,34.79
2022-08-11T10:30:14.089Z,34.80
2022-08-11T10:31:14.098Z,34.95
2022-08-11T10:32:14.074Z,35.01
2022-08-11T10:33:36.480Z,35.20
2022-08-11T10:34:15.040Z,35.38
2022-08-11T10:35:14.039Z,35.53
2022-08-11T10:36:16.713Z,35.60
2022-08-11T10:37:15.086Z,35.68
2022-08-11T10:38:14.046Z,35.83
2022-08-11T10:39:14.047Z,35.85
2022-08-11T10:40:13.988Z,35.91
2022-08-11T10:41:13.977Z,36.00
2022-08-11T10:42:25.618Z,36.09
2022-08-11T10:44:01.861Z,36.13
2022-08-11T10:44:14.948Z,36.09
2022-08-11T10:45:13.937Z,36.19
2022-08-11T10:46:13.930Z,36.23
2022-08-11T10:47:13.920Z,36.14
2022-08-11T10:48:15.594Z,36.13
2022-08-11T10:49:13.896Z,36.20
2022-08-11T10:50:13.883Z,36.13
2022-08-11T10:51:13.907Z,36.13
2022-08-11T10:52:13.866Z,36.09
2022-08-11T10:53:13.855Z,36.02
2022-08-11T10:54:13.874Z,36.06
2022-08-11T10:55:13.838Z,35.98
2022-08-11T10:56:13.826Z,35.97
2022-08-11T10:57:13.817Z,36.06
2022-08-11T10:58:13.830Z,35.98
2022-08-11T10:59:13.881Z,36.00
2022-08-11T11:00:13.788Z,35.95
2022-08-11T11:01:13.799Z,36.09
2022-08-11T11:02:13.767Z,36.13
2022-08-11T11:03:23.761Z,36.14
2022-08-11T11:04:14.774Z,36.17
2022-08-11T11:05:13.734Z,36.32
2022-08-11T11:06:28.369Z,36.30
2022-08-11T11:07:14.715Z,36.36
2022-08-11T11:08:13.705Z,36.35
2022-08-11T11:09:13.693Z,36.33
2022-08-11T11:10:13.721Z,36.38
2022-08-11T11:11:18.387Z,36.48
2022-08-11T11:12:13.671Z,36.47
2022-08-11T11:13:13.649Z,36.51
2022-08-11T11:14:13.838Z,36.56
2022-08-11T11:15:17.685Z,36.57
2022-08-11T11:16:13.627Z,36.57
2022-08-11T11:17:14.162Z,36.59
2022-08-11T11:18:13.602Z,36.49
2022-08-11T11:19:13.598Z,36.48
2022-08-11T11:20:35.853Z,36.48
2022-08-11T11:21:14.587Z,36.48
2022-08-11T11:22:13.567Z,36.52
2022-08-11T11:23:13.558Z,36.60
2022-08-11T11:24:13.546Z,36.56
2022-08-11T11:25:13.564Z,36.57
2022-08-11T11:26:13.521Z,36.52
2022-08-11T11:27:13.513Z,36.48
2022-08-11T11:28:13.502Z,36.47
2022-08-11T11:29:13.494Z,36.56
2022-08-11T11:30:13.589Z,36.51
2022-08-11T11:31:15.614Z,36.47
2022-08-11T11:32:13.460Z,36.57
2022-08-11T11:33:13.456Z,36.57
2022-08-11T11:34:13.482Z,36.60
2022-08-11T11:35:13.435Z,36.54
2022-08-11T11:36:13.421Z,36.60
2022-08-11T11:37:13.419Z,36.54
2022-08-11T11:38:14.332Z,36.66
2022-08-11T11:39:13.499Z,36.61
2022-08-11T11:40:13.468Z,36.69
2022-08-11T11:41:13.368Z,36.63
2022-08-11T11:42:13.363Z,36.76
2022-08-11T11:43:13.352Z,36.70
2022-08-11T11:44:13.342Z,36.78
2022-08-11T11:45:22.822Z,36.76
2022-08-11T11:46:14.318Z,36.82
2022-08-11T11:47:13.313Z,36.76
2022-08-11T11:48:13.307Z,36.78
2022-08-11T11:49:16.846Z,36.82
2022-08-11T11:50:13.570Z,36.94
2022-08-11T11:51:13.270Z,36.96
2022-08-11T11:52:13.258Z,37.00
2022-08-11T11:53:13.243Z,37.08
2022-08-11T11:54:13.239Z,37.05
2022-08-11T11:55:13.290Z,37.15
2022-08-11T11:56:13.410Z,37.22
2022-08-11T11:57:13.206Z,37.17
2022-08-11T11:58:15.966Z,37.16
2022-08-11T11:59:14.675Z,37.20
2022-08-11T12:00:13.179Z,37.23
2022-08-11T12:01:13.180Z,37.30
2022-08-11T12:02:13.166Z,37.31
2022-08-11T12:03:13.269Z,37.42
2022-08-11T12:04:13.167Z,37.35
2022-08-11T12:05:13.128Z,37.50
2022-08-11T12:06:13.158Z,37.57
2022-08-11T12:07:13.117Z,37.51
2022-08-11T12:08:13.486Z,37.62
2022-08-11T12:09:13.122Z,37.65
2022-08-11T12:10:13.079Z,37.65
2022-08-11T12:11:13.071Z,37.73
2022-08-11T12:12:13.059Z,37.76
2022-08-11T12:13:13.051Z,37.87
2022-08-11T12:14:13.083Z,37.85
2022-08-11T12:15:13.033Z,37.96
2022-08-11T12:16:32.773Z,37.98
2022-08-11T12:17:14.040Z,37.95
2022-08-11T12:18:13.004Z,37.99
2022-08-11T12:19:13.011Z,38.04
2022-08-11T12:20:16.887Z,38.14
2022-08-11T12:21:14.129Z,38.20
2022-08-11T12:22:12.962Z,38.11
2022-08-11T12:23:14.610Z,38.11
2022-08-11T12:24:12.945Z,38.26
2022-08-11T12:25:12.924Z,38.29
2022-08-11T12:26:28.180Z,38.28
2022-08-11T12:27:17.037Z,38.33
2022-08-11T12:28:12.905Z,38.41
2022-08-11T12:29:12.891Z,38.48
2022-08-11T12:30:12.878Z,38.50
2022-08-11T12:31:12.869Z,38.50
2022-08-11T12:32:12.895Z,38.50
2022-08-11T12:33:12.850Z,38.64
2022-08-11T12:34:12.840Z,38.69
2022-08-11T12:35:12.835Z,38.70
2022-08-11T12:36:12.868Z,38.76
2022-08-11T12:37:13.230Z,38.79
2022-08-11T12:38:12.937Z,38.81
2022-08-11T12:39:22.998Z,38.86
2022-08-11T12:40:42.580Z,38.79
2022-08-11T12:41:16.426Z,38.98
2022-08-11T12:42:12.806Z,38.98
2022-08-11T12:43:21.220Z,39.05
2022-08-11T12:44:13.740Z,39.04
2022-08-11T12:45:22.295Z,39.12
2022-08-11T12:46:13.720Z,39.12
2022-08-11T12:47:12.737Z,39.30
2022-08-11T12:48:59.371Z,39.27
2022-08-11T12:49:13.695Z,39.24
2022-08-11T12:50:23.102Z,39.21
2022-08-11T12:51:13.668Z,39.28
2022-08-11T12:52:15.271Z,39.35
2022-08-11T12:53:12.653Z,39.39
2022-08-11T12:54:12.646Z,39.46
2022-08-11T12:55:13.751Z,39.48